Airfield :
LOGIN :

Register | Disclaimer

   EN    FR    IT 

 










Legend :    VFR   Marginal VFR   IFR   Intensive IFR   Very Intensive IFR
Visi :
Ceiling :
>= 8 km
>= 3000ft
5 to 8 km
1000 to 3000 ft
1500m to 5 km
500 to 1000 ft
800 to 1500m
200 to 500 ft
< 800m
< 200 ft
Symbols :   Thunderstorms  Fog  Heavy snow  Heavy precipitations  Wind > 20 kt
SIGMETs :     Misc.  Thunderstorms  Icing  Turbulence  Mountain Waves  Volcanic Ashes






- Airport Elevation : 3 ft
- IATA code : LWR


EHLW - Leuuwarden Air Base

CURRENT METAR :
  • 231125Z AUTO 21008KT 160V230 9999 BKN045 OVC054 11/08 Q1026 BLU

EXPIRED METARs :
  • 231055Z AUTO 18006KT 130V220 9999 BKN046 OVC053 12/08 Q1026 BLU
  • 231025Z AUTO 19005KT 160V220 9999 BKN049 OVC053 12/08 Q1026 BLU
  • 230955Z AUTO 21004KT 9999 FEW039 OVC051 11/07 Q1026 BLU
  • 230925Z AUTO 21004KT 9999 BKN042 OVC052 11/07 Q1026 BLU
  • 230855Z AUTO 21004KT 9999 OVC054 10/07 Q1026 BLU

TAF TAF EHLW
Valid from the 23 at 09:00 until the 23 at 21:00 UTC


230811Z 2309/2321 28005KT 9999 SCT045
BECMG 2309/2312 20008KT



MET'MAP, your aeronautical weather chart ! - Copyright ORBIFLY December 2007 - Disclaimer

ORBIFLY MET'MAP TEAM :

Programming & Development : Alexandra Zaïnal
Concept & original design : Baudouin d'Aumeries
Assistance for programming : Marc-Olivier Méhu
Technical & hardware support : Manuel Goepfert

Contact : metmap@orbifly.com




SOURCES & CREDITS :

   NOAA